Time;durP1;ratioP1;P1;durP2;ratioP2;P2;SDS_P1;SDS_P2;PMS_P1;PMS_P2;Temp;Humidity;BMP_temperature;BMP_pressure;BME280_temperature;BME280_humidity;BME280_pressure;Samples;Min_cycle;Max_cycle;Signal;HPM_P1;HPM_P2
2022/09/03 00:01:02;;;;;;;;;;;;;;;15.30;51.27;101866.94;5057619;28;19946;-51
2022/09/03 00:03:30;;;;;;;;;;;;;;;15.29;51.13;101870.53;5061966;28;20353;-52
2022/09/03 00:06:25;;;;;;;;;;;;;;;15.27;51.14;101869.78;5064065;28;19928;-51
2022/09/03 00:09:00;;;;;;;;;;;;;;;15.26;51.33;101868.94;5052019;28;19924;-52
2022/09/03 00:11:44;;;;;;;;;;;;;;;15.27;51.29;101872.44;5063567;28;20023;-52
2022/09/03 00:14:21;;;;;;;;;;;;;;;15.22;51.25;101870.88;5057157;28;20051;-52
2022/09/03 00:16:50;;;;;;;;;;;;;;;15.19;51.40;101870.22;5054678;28;19920;-51
2022/09/03 00:19:19;;;;;;;;;;;;;;;15.15;51.35;101864.25;5058020;28;20052;-50
2022/09/03 00:21:46;;;;;;;;;;;;;;;15.11;51.40;101867.19;5056199;28;19975;-50
2022/09/03 00:24:13;;;;;;;;;;;;;;;15.09;51.44;101864.59;5063154;28;19916;-51
2022/09/03 00:26:41;;;;;;;;;;;;;;;15.06;51.49;101867.44;5055215;28;19923;-50
2022/09/03 00:29:18;;;;;;;;;;;;;;;15.03;51.64;101875.59;5054572;28;20421;-51
2022/09/03 00:31:47;;;;;;;;;;;;;;;14.99;51.67;101874.06;5059636;28;20406;-52
2022/09/03 00:34:19;;;;;;;;;;;;;;;14.99;51.60;101874.06;5062794;28;19959;-51
2022/09/03 00:36:45;;;;;;;;;;;;;;;15.00;51.66;101875.75;5059814;28;20015;-50
2022/09/03 00:39:12;;;;;;;;;;;;;;;14.99;51.73;101880.19;5060725;28;20058;-51
2022/09/03 00:41:56;;;;;;;;;;;;;;;14.98;51.60;101878.50;5053561;28;19925;-51
2022/09/03 00:44:57;;;;;;;;;;;;;;;14.99;51.48;101877.53;5066745;28;20015;-51
2022/09/03 00:47:39;;;;;;;;;;;;;;;14.94;51.59;101872.53;4980693;28;19967;-51
2022/09/03 00:50:19;;;;;;;;;;;;;;;14.89;51.82;101868.44;5059252;28;20789;-51
2022/09/03 00:52:48;;;;;;;;;;;;;;;14.86;51.76;101872.13;5064573;28;19924;-51
2022/09/03 00:55:31;;;;;;;;;;;;;;;14.83;51.86;101872.31;5061745;28;19926;-51
2022/09/03 00:58:15;;;;;;;;;;;;;;;14.81;51.94;101870.69;5057435;28;19970;-52
2022/09/03 01:00:44;;;;;;;;;;;;;;;14.78;51.89;101877.00;5054570;28;19923;-51
2022/09/03 01:03:11;;;;;;;;;;;;;;;14.75;52.04;101877.16;5058140;28;20398;-51
2022/09/03 01:05:51;;;;;;;;;;;;;;;14.74;52.09;101873.69;5061958;28;19936;-51
2022/09/03 01:08:44;;;;;;;;;;;;;;;14.73;52.06;101874.63;5060870;28;19925;-51
2022/09/03 01:11:19;;;;;;;;;;;;;;;14.71;52.18;101865.06;5032518;28;20043;-51
2022/09/03 01:13:48;;;;;;;;;;;;;;;14.68;52.12;101873.19;5052079;28;19924;-52
2022/09/03 01:16:34;;;;;;;;;;;;;;;14.67;52.16;101868.78;5053046;28;19924;-51
2022/09/03 01:18:59;;;;;;;;;;;;;;;14.62;52.05;101869.91;5056489;28;19995;-53
2022/09/03 01:21:25;;;;;;;;;;;;;;;14.57;52.11;101874.63;5054538;28;19981;-52
2022/09/03 01:24:06;;;;;;;;;;;;;;;14.54;52.34;101869.50;5056975;28;20055;-51
2022/09/03 01:26:58;;;;;;;;;;;;;;;14.50;52.45;101877.72;5060234;28;19920;-51
2022/09/03 01:29:43;;;;;;;;;;;;;;;14.49;52.46;101874.19;5053725;28;20444;-51
2022/09/03 01:32:28;;;;;;;;;;;;;;;14.47;52.28;101873.41;5058057;28;20005;-52
2022/09/03 01:35:02;;;;;;;;;;;;;;;14.47;52.54;101869.00;5058025;28;19932;-52
2022/09/03 01:37:28;;;;;;;;;;;;;;;14.46;52.61;101874.34;5054824;28;19946;-51
2022/09/03 01:40:00;;;;;;;;;;;;;;;14.44;52.58;101873.59;5050299;28;19921;-51
2022/09/03 01:42:39;;;;;;;;;;;;;;;14.44;52.46;101870.97;5051229;28;19975;-51
2022/09/03 01:45:24;;;;;;;;;;;;;;;14.43;52.61;101870.09;5052167;28;19927;-51
2022/09/03 01:48:11;;;;;;;;;;;;;;;14.44;52.51;101868.31;5051398;28;19920;-51
2022/09/03 01:50:37;;;;;;;;;;;;;;;14.43;52.61;101866.59;5049670;28;20569;-51
2022/09/03 01:53:10;;;;;;;;;;;;;;;14.41;52.62;101873.78;5052958;28;19925;-53
2022/09/03 01:55:41;;;;;;;;;;;;;;;14.43;52.66;101874.56;5057242;28;19958;-51
2022/09/03 01:58:10;;;;;;;;;;;;;;;14.45;52.83;101880.59;5057031;28;19973;-52
2022/09/03 02:00:39;;;;;;;;;;;;;;;14.45;52.71;101870.00;5047680;28;19924;-51
2022/09/03 02:03:06;;;;;;;;;;;;;;;14.47;52.77;101868.13;5052559;28;19921;-50
2022/09/03 02:05:31;;;;;;;;;;;;;;;14.46;52.90;101869.06;5054589;28;19955;-52
2022/09/03 02:07:56;;;;;;;;;;;;;;;14.47;52.91;101863.69;5056088;28;20024;-51
2022/09/03 02:10:29;;;;;;;;;;;;;;;14.47;52.93;101861.03;5055681;28;20022;-51
2022/09/03 02:12:58;;;;;;;;;;;;;;;14.47;52.91;101857.53;5052453;28;19978;-51
2022/09/03 02:15:24;;;;;;;;;;;;;;;14.46;53.22;101854.03;5045695;28;19929;-51
2022/09/03 02:17:53;;;;;;;;;;;;;;;14.47;53.16;101853.09;5047579;28;19964;-51
2022/09/03 02:20:20;;;;;;;;;;;;;;;14.50;53.22;101846.75;5056705;28;20067;-53
2022/09/03 02:22:47;;;;;;;;;;;;;;;14.50;53.05;101853.88;5048205;28;19920;-51
2022/09/03 02:25:13;;;;;;;;;;;;;;;14.51;53.18;101858.22;5057201;28;19924;-51
2022/09/03 02:27:38;;;;;;;;;;;;;;;14.51;53.38;101858.22;5048388;28;19920;-51
2022/09/03 02:30:04;;;;;;;;;;;;;;;14.52;53.43;101849.34;5054727;28;20678;-51
2022/09/03 02:32:30;;;;;;;;;;;;;;;14.54;53.42;101861.53;5047617;28;20322;-51
2022/09/03 02:34:56;;;;;;;;;;;;;;;14.55;53.47;101851.78;5053750;28;19968;-52
2022/09/03 02:37:22;;;;;;;;;;;;;;;14.57;53.53;101860.50;5053856;28;20020;-51
2022/09/03 02:39:47;;;;;;;;;;;;;;;14.55;53.49;101855.31;5059608;28;19930;-52
2022/09/03 02:42:14;;;;;;;;;;;;;;;14.55;53.62;101855.31;5048632;28;19928;-51
2022/09/03 02:44:43;;;;;;;;;;;;;;;14.54;53.60;101855.38;5052956;28;20644;-51
2022/09/03 02:47:09;;;;;;;;;;;;;;;14.55;53.70;101855.31;5056121;28;20047;-51
2022/09/03 02:49:34;;;;;;;;;;;;;;;14.54;53.77;101858.91;5057868;28;19934;-51
2022/09/03 02:52:04;;;;;;;;;;;;;;;14.53;53.87;101862.50;5058048;28;20432;-51
2022/09/03 02:54:32;;;;;;;;;;;;;;;14.55;53.92;101857.09;5053550;28;20066;-52
2022/09/03 02:56:57;;;;;;;;;;;;;;;14.56;53.84;101854.38;5053916;28;20543;-50
2022/09/03 02:59:22;;;;;;;;;;;;;;;14.55;53.86;101857.97;5055926;28;20042;-51
2022/09/03 03:01:48;;;;;;;;;;;;;;;14.54;53.85;101850.09;5058245;28;19932;-51
2022/09/03 03:04:14;;;;;;;;;;;;;;;14.51;53.97;101855.59;5050238;28;20422;-51
2022/09/03 03:06:39;;;;;;;;;;;;;;;14.51;54.00;101858.22;5054607;28;19916;-51
2022/09/03 03:09:05;;;;;;;;;;;;;;;14.51;54.08;101859.06;5050978;28;19928;-52
2022/09/03 03:11:31;;;;;;;;;;;;;;;14.48;53.96;101857.47;5056499;28;19917;-51
2022/09/03 03:13:56;;;;;;;;;;;;;;;14.47;54.08;101860.16;5051050;28;19935;-51
2022/09/03 03:16:21;;;;;;;;;;;;;;;14.46;54.18;101863.75;5051102;28;19928;-52
2022/09/03 03:18:47;;;;;;;;;;;;;;;14.43;54.27;101863.97;5056188;28;19924;-51
2022/09/03 03:21:16;;;;;;;;;;;;;;;14.42;54.39;101864.91;5055237;28;19920;-50
2022/09/03 03:23:41;;;;;;;;;;;;;;;14.40;54.47;101864.97;5054312;28;19932;-50
2022/09/03 03:26:08;;;;;;;;;;;;;;;14.38;54.39;101863.34;5060550;28;19917;-51
2022/09/03 03:28:34;;;;;;;;;;;;;;;14.36;54.48;101862.56;5051827;28;19931;-51
2022/09/03 03:31:10;;;;;;;;;;;;;;;14.36;54.65;101870.53;5063071;28;20007;-51
2022/09/03 03:33:36;;;;;;;;;;;;;;;14.36;54.69;101870.53;5061505;28;20024;-50
2022/09/03 03:36:09;;;;;;;;;;;;;;;14.35;54.61;101869.69;5059339;28;20527;-51
2022/09/03 03:38:35;;;;;;;;;;;;;;;14.34;54.70;101862.69;5061579;28;20003;-51
2022/09/03 03:41:06;;;;;;;;;;;;;;;14.36;54.83;101870.53;5061892;28;20015;-51
2022/09/03 03:43:31;;;;;;;;;;;;;;;14.36;54.75;101865.22;5053628;28;19924;-51
2022/09/03 03:45:57;;;;;;;;;;;;;;;14.37;54.64;101873.06;5059625;28;19925;-53
2022/09/03 03:48:22;;;;;;;;;;;;;;;14.38;54.82;101871.28;5057141;28;19928;-51
2022/09/03 03:50:47;;;;;;;;;;;;;;;14.37;54.67;101869.59;5055498;28;19935;-50
2022/09/03 03:53:13;;;;;;;;;;;;;;;14.36;54.89;101866.09;5062832;28;19923;-50
2022/09/03 03:55:38;;;;;;;;;;;;;;;14.35;54.90;101869.69;5063627;28;19962;-51
2022/09/03 03:58:03;;;;;;;;;;;;;;;14.35;54.74;101867.03;5060660;28;19963;-50
2022/09/03 04:00:29;;;;;;;;;;;;;;;14.35;54.71;101874.09;5054878;28;19979;-51
2022/09/03 04:02:54;;;;;;;;;;;;;;;14.31;54.86;101868.13;5060138;28;19970;-50
2022/09/03 04:05:19;;;;;;;;;;;;;;;14.29;54.82;101876.16;5057638;28;20015;-51
2022/09/03 04:07:45;;;;;;;;;;;;;;;14.29;55.02;101878.78;5059368;28;21193;-51
2022/09/03 04:10:10;;;;;;;;;;;;;;;14.30;55.00;101877.00;5060353;28;19932;-51
2022/09/03 04:12:35;;;;;;;;;;;;;;;14.27;55.15;101872.75;5062763;28;19928;-51
2022/09/03 04:15:01;;;;;;;;;;;;;;;14.26;55.05;101880.75;5056205;28;20015;-50
2022/09/03 04:17:27;;;;;;;;;;;;;;;14.25;55.10;101866.69;5057365;28;19924;-51
2022/09/03 04:19:52;;;;;;;;;;;;;;;14.24;55.09;101869.41;5058767;28;19920;-52
2022/09/03 04:22:19;;;;;;;;;;;;;;;14.22;55.19;101866.84;5051518;28;19928;-50
2022/09/03 04:24:44;;;;;;;;;;;;;;;14.22;55.19;101863.38;5057987;28;19925;-51
2022/09/03 04:27:10;;;;;;;;;;;;;;;14.20;55.24;101866.06;5057211;28;19939;-50
2022/09/03 04:29:35;;;;;;;;;;;;;;;14.21;55.44;101864.31;5055952;28;20644;-51
2022/09/03 04:34:44;;;;;;;;;;;;;;;14.21;55.53;101859.00;5062326;28;19966;-51
2022/09/03 04:37:10;;;;;;;;;;;;;;;14.20;55.35;101860.78;5053361;28;19932;-51
2022/09/03 04:39:36;;;;;;;;;;;;;;;14.23;55.46;101865.03;5058276;28;19925;-51
2022/09/03 04:42:01;;;;;;;;;;;;;;;14.24;55.48;101856.16;5055900;28;19925;-50
2022/09/03 04:44:26;;;;;;;;;;;;;;;14.25;55.46;101865.81;5060989;28;20391;-51
2022/09/03 04:46:52;;;;;;;;;;;;;;;14.26;55.49;101862.22;5064346;28;19927;-51
2022/09/03 04:49:18;;;;;;;;;;;;;;;14.27;55.74;101861.28;5064696;28;20142;-52
2022/09/03 04:51:43;;;;;;;;;;;;;;;14.27;55.52;101862.16;5066262;28;20835;-51
2022/09/03 04:54:09;;;;;;;;;;;;;;;14.27;55.66;101864.81;5065972;28;19956;-50
2022/09/03 04:56:35;;;;;;;;;;;;;;;14.28;55.54;101863.88;5061732;28;19924;-51
2022/09/03 04:59:07;;;;;;;;;;;;;;;14.28;55.71;101865.66;5060045;28;20007;-51
2022/09/03 05:01:34;;;;;;;;;;;;;;;14.28;55.69;101869.16;5058197;28;19916;-51
2022/09/03 05:03:59;;;;;;;;;;;;;;;14.30;55.72;101869.91;5060034;28;20167;-51
2022/09/03 05:06:25;;;;;;;;;;;;;;;14.29;55.77;101870.84;5061905;28;20384;-51
2022/09/03 05:08:52;;;;;;;;;;;;;;;14.30;55.84;101872.56;5074195;28;19924;-51
2022/09/03 05:11:17;;;;;;;;;;;;;;;14.30;55.88;101869.06;5060422;28;19935;-51
2022/09/03 05:13:46;;;;;;;;;;;;;;;14.31;55.75;101879.56;5059338;28;19924;-51
2022/09/03 05:16:12;;;;;;;;;;;;;;;14.31;56.09;101874.28;5055226;28;19932;-50
2022/09/03 05:18:37;;;;;;;;;;;;;;;14.34;56.00;101878.56;5055532;28;19934;-51
2022/09/03 05:21:06;;;;;;;;;;;;;;;14.38;55.88;101879.25;5055264;28;20011;-51
2022/09/03 05:23:35;;;;;;;;;;;;;;;14.40;55.95;101877.38;5057087;28;19966;-51
2022/09/03 05:26:01;;;;;;;;;;;;;;;14.41;56.06;101884.38;5060751;28;19931;-51
2022/09/03 05:28:29;;;;;;;;;;;;;;;14.43;56.06;101887.78;5056061;28;19990;-50
2022/09/03 05:31:02;;;;;;;;;;;;;;;14.45;56.11;101883.22;5061456;28;19924;-52
2022/09/03 05:33:27;;;;;;;;;;;;;;;14.47;55.96;101881.34;5060242;28;20566;-52
2022/09/03 05:35:54;;;;;;;;;;;;;;;14.48;56.16;101880.41;5057222;28;19925;-52
2022/09/03 05:38:19;;;;;;;;;;;;;;;14.50;56.14;101878.53;5063281;28;20418;-51
2022/09/03 05:40:45;;;;;;;;;;;;;;;14.52;56.09;101886.41;5045145;28;20384;-51
2022/09/03 05:43:10;;;;;;;;;;;;;;;14.55;56.17;101878.28;5057051;28;19929;-51
2022/09/03 05:45:35;;;;;;;;;;;;;;;14.58;56.22;101880.75;5052001;28;19924;-51
2022/09/03 05:48:01;;;;;;;;;;;;;;;14.61;56.26;101881.44;5052845;28;20330;-51
2022/09/03 05:50:27;;;;;;;;;;;;;;;14.65;56.21;101882.13;5050195;28;19936;-53
2022/09/03 05:52:52;;;;;;;;;;;;;;;14.68;56.20;101883.78;5055984;28;20070;-51
2022/09/03 05:55:17;;;;;;;;;;;;;;;14.71;56.15;101880.97;5051676;28;19936;-51
2022/09/03 05:57:44;;;;;;;;;;;;;;;14.75;56.14;101885.13;5051322;28;19925;-51
2022/09/03 06:00:10;;;;;;;;;;;;;;;14.79;56.32;101884.00;5049629;28;19955;-51
2022/09/03 06:02:35;;;;;;;;;;;;;;;14.83;56.20;101885.53;5045716;28;20430;-50
2022/09/03 06:05:01;;;;;;;;;;;;;;;14.86;56.18;101882.72;5050479;28;19924;-51
2022/09/03 06:07:26;;;;;;;;;;;;;;;14.91;56.14;101878.00;5046824;28;20267;-51
2022/09/03 06:09:53;;;;;;;;;;;;;;;14.96;56.13;101879.53;5055494;28;19998;-52
2022/09/03 06:12:18;;;;;;;;;;;;;;;15.00;56.16;101881.06;5025345;28;22997;-52
2022/09/03 06:14:43;;;;;;;;;;;;;;;15.05;56.12;101886.97;5054461;28;19924;-50
2022/09/03 06:17:10;;;;;;;;;;;;;;;15.08;56.12;101887.63;5052039;28;19932;-50
2022/09/03 06:19:35;;;;;;;;;;;;;;;15.14;55.95;101888.19;5046282;28;20387;-50
2022/09/03 06:22:00;;;;;;;;;;;;;;;15.18;55.97;101890.59;5057331;28;20439;-52
2022/09/03 06:24:28;;;;;;;;;;;;;;;15.22;56.00;101892.09;5058621;28;20032;-52
2022/09/03 06:26:53;;;;;;;;;;;;;;;15.26;55.88;101886.63;5058232;28;19920;-50
2022/09/03 06:29:19;;;;;;;;;;;;;;;15.30;55.94;101893.47;5050972;28;19929;-50
2022/09/03 06:31:47;;;;;;;;;;;;;;;15.32;56.00;101889.75;5055886;28;19956;-51
2022/09/03 06:34:12;;;;;;;;;;;;;;;15.38;55.92;101896.50;5055022;28;19924;-51
2022/09/03 06:36:38;;;;;;;;;;;;;;;15.42;55.88;101887.41;5060849;28;19929;-51
2022/09/03 06:39:03;;;;;;;;;;;;;;;15.47;55.81;101895.09;5057433;28;19974;-51
2022/09/03 06:41:34;;;;;;;;;;;;;;;15.49;55.86;101896.72;5054483;28;20023;-51
2022/09/03 06:44:11;;;;;;;;;;;;;;;15.52;55.82;101888.56;5055211;28;19925;-51
2022/09/03 06:46:37;;;;;;;;;;;;;;;15.57;55.73;101890.09;5060017;28;20007;-51
2022/09/03 06:49:03;;;;;;;;;;;;;;;15.62;55.77;101893.31;5055670;28;19917;-52
2022/09/03 06:51:29;;;;;;;;;;;;;;;15.66;55.87;101892.16;5059845;28;19930;-51
2022/09/03 06:54:02;;;;;;;;;;;;;;;15.72;55.76;101889.16;5051618;28;20315;-51
2022/09/03 06:56:28;;;;;;;;;;;;;;;15.77;55.67;101892.38;5044977;28;19955;-51
2022/09/03 06:58:54;;;;;;;;;;;;;;;15.80;55.60;101886.91;5059990;28;19916;-51
2022/09/03 07:01:22;;;;;;;;;;;;;;;15.84;55.56;101883.06;5053926;28;19986;-53
2022/09/03 07:03:51;;;;;;;;;;;;;;;15.90;55.55;101884.53;5058284;28;20483;-50
2022/09/03 07:06:17;;;;;;;;;;;;;;;15.96;55.55;101886.81;5049868;28;19924;-51
2022/09/03 07:08:43;;;;;;;;;;;;;;;16.03;55.40;101889.09;5049692;28;19916;-51
2022/09/03 07:11:10;;;;;;;;;;;;;;;16.08;55.22;101894.94;5051831;28;19925;-51
2022/09/03 07:13:36;;;;;;;;;;;;;;;16.13;55.18;101882.25;5049821;28;19929;-51
2022/09/03 07:16:03;;;;;;;;;;;;;;;16.18;55.04;101882.81;5057244;28;20017;-52
2022/09/03 07:18:29;;;;;;;;;;;;;;;16.24;55.05;101878.91;5056777;28;19925;-52
2022/09/03 07:20:59;;;;;;;;;;;;;;;16.28;54.97;101885.72;5054533;28;19981;-53
2022/09/03 07:23:24;;;;;;;;;;;;;;;16.34;54.85;101880.03;5055795;28;19916;-54
2022/09/03 07:25:56;;;;;;;;;;;;;;;16.39;54.80;101877.94;5059436;28;20521;-51
2022/09/03 07:28:23;;;;;;;;;;;;;;;16.44;54.53;101888.25;5059240;28;19920;-52
2022/09/03 07:30:49;;;;;;;;;;;;;;;16.49;54.63;101883.47;5056476;28;20319;-52
2022/09/03 07:33:14;;;;;;;;;;;;;;;16.53;54.56;101884.16;5055033;28;19921;-51
2022/09/03 07:35:39;;;;;;;;;;;;;;;16.57;54.49;101885.63;5060762;28;19981;-50
2022/09/03 07:38:05;;;;;;;;;;;;;;;16.62;54.30;101880.88;5057766;28;20402;-51
2022/09/03 07:40:31;;;;;;;;;;;;;;;16.66;54.33;101884.19;5057993;28;19924;-50
2022/09/03 07:43:00;;;;;;;;;;;;;;;16.69;54.28;101876.88;5060112;28;19928;-50
2022/09/03 07:45:27;;;;;;;;;;;;;;;16.74;54.13;101880.06;5060048;28;19925;-51
2022/09/03 07:47:53;;;;;;;;;;;;;;;16.82;53.94;101884.03;5061329;28;19960;-50
2022/09/03 07:50:18;;;;;;;;;;;;;;;16.87;53.87;101881.91;5058526;28;19993;-50
2022/09/03 07:52:44;;;;;;;;;;;;;;;16.93;53.90;101886.84;5055014;28;19920;-53
2022/09/03 07:55:10;;;;;;;;;;;;;;;16.98;53.81;101879.44;5056348;28;19921;-50
2022/09/03 07:57:35;;;;;;;;;;;;;;;17.04;53.67;101884.34;5054916;28;20467;-51
2022/09/03 08:00:00;;;;;;;;;;;;;;;17.11;53.37;101884.78;5058240;28;19997;-50
2022/09/03 08:02:26;;;;;;;;;;;;;;;17.18;53.43;101893.19;5060039;28;19920;-52
2022/09/03 08:04:51;;;;;;;;;;;;;;;17.23;53.02;101891.06;5059258;28;20347;-51
2022/09/03 08:07:16;;;;;;;;;;;;;;;17.31;53.13;101893.22;5058454;28;19920;-51
2022/09/03 08:09:44;;;;;;;;;;;;;;;17.36;53.18;101894.59;5060053;28;19928;-54
2022/09/03 08:12:09;;;;;;;;;;;;;;;17.44;52.79;101901.22;5060609;28;20055;-51
2022/09/03 08:14:34;;;;;;;;;;;;;;;17.49;52.92;101904.41;5061802;28;20003;-53
2022/09/03 08:17:00;;;;;;;;;;;;;;;17.52;52.57;101893.56;5062311;28;19951;-51
2022/09/03 08:19:25;;;;;;;;;;;;;;;17.55;52.38;101898.66;5062187;28;20472;-54
2022/09/03 08:21:50;;;;;;;;;;;;;;;17.57;52.40;101902.06;5060766;28;19930;-52
2022/09/03 08:24:16;;;;;;;;;;;;;;;17.57;52.22;101899.41;5061617;28;20854;-53
2022/09/03 08:26:42;;;;;;;;;;;;;;;17.57;52.31;101901.22;5061974;28;20513;-54
2022/09/03 08:29:08;;;;;;;;;;;;;;;17.56;52.40;101897.72;5059333;28;19924;-51
2022/09/03 08:31:33;;;;;;;;;;;;;;;17.56;52.31;101900.38;5060486;28;19924;-53
2022/09/03 08:34:05;;;;;;;;;;;;;;;17.56;52.34;101891.53;5060905;28;19975;-50
2022/09/03 08:36:31;;;;;;;;;;;;;;;17.57;52.55;101885.25;5065417;28;19924;-54
2022/09/03 08:39:02;;;;;;;;;;;;;;;17.58;52.44;101884.28;5057253;28;19935;-50
2022/09/03 08:41:47;;;;;;;;;;;;;;;17.62;52.40;101883.97;5060252;28;19920;-52
2022/09/03 08:44:23;;;;;;;;;;;;;;;17.65;52.19;101889.06;5061135;28;19960;-52
2022/09/03 08:46:52;;;;;;;;;;;;;;;17.68;52.28;101890.69;5062068;28;19983;-51
2022/09/03 08:49:45;;;;;;;;;;;;;;;17.72;52.09;101884.16;5060762;28;19978;-53
2022/09/03 08:52:31;;;;;;;;;;;;;;;17.75;52.17;101885.78;5058774;28;19924;-52
2022/09/03 08:55:15;;;;;;;;;;;;;;;17.79;51.82;101880.13;5060037;28;19920;-54
2022/09/03 08:57:45;;;;;;;;;;;;;;;17.86;51.80;101880.56;5060779;28;19923;-52
2022/09/03 09:00:11;;;;;;;;;;;;;;;17.92;51.73;101880.09;5058927;28;19917;-51
2022/09/03 09:02:36;;;;;;;;;;;;;;;17.98;51.56;101881.53;5075705;28;19976;-50
2022/09/03 09:05:10;;;;;;;;;;;;;;;18.04;51.52;101880.25;5057989;28;20043;-52
2022/09/03 09:07:48;;;;;;;;;;;;;;;18.11;51.58;101876.16;5060233;28;20300;-51
2022/09/03 09:10:31;;;;;;;;;;;;;;;18.17;51.41;101867.75;5057389;28;19927;-51
2022/09/03 09:13:09;;;;;;;;;;;;;;;18.23;51.34;101869.94;5058266;28;19925;-54
2022/09/03 09:15:34;;;;;;;;;;;;;;;18.29;50.90;101866.00;5057485;28;19935;-51
2022/09/03 09:18:18;;;;;;;;;;;;;;;18.36;50.70;101861.06;5061795;28;19924;-53
2022/09/03 09:20:52;;;;;;;;;;;;;;;18.42;50.77;101864.16;5057990;28;19966;-52
2022/09/03 09:23:17;;;;;;;;;;;;;;;18.49;50.60;101861.88;5059979;28;20016;-51
2022/09/03 09:25:53;;;;;;;;;;;;;;;18.55;50.60;101860.56;5061280;28;20757;-52
2022/09/03 09:28:18;;;;;;;;;;;;;;;18.61;50.20;101859.25;5061713;28;19964;-52
2022/09/03 09:30:46;;;;;;;;;;;;;;;18.66;49.93;101865.94;5057958;28;19956;-52
2022/09/03 09:33:11;;;;;;;;;;;;;;;18.71;49.84;101857.59;5059972;28;20059;-52
2022/09/03 09:35:40;;;;;;;;;;;;;;;18.77;49.77;101854.47;5057539;28;20019;-51
2022/09/03 09:38:05;;;;;;;;;;;;;;;18.81;49.64;101850.63;5058092;28;19931;-55
2022/09/03 09:40:35;;;;;;;;;;;;;;;18.86;49.36;101859.13;5060220;28;19924;-52
2022/09/03 09:43:14;;;;;;;;;;;;;;;18.92;49.21;101851.63;5059361;28;20387;-54
2022/09/03 09:45:44;;;;;;;;;;;;;;;18.97;49.07;101845.00;5058087;28;19950;-53
2022/09/03 09:48:33;;;;;;;;;;;;;;;19.00;49.13;101843.91;5062302;28;20011;-51
2022/09/03 09:51:06;;;;;;;;;;;;;;;19.05;48.83;101847.09;5060676;28;19943;-52
2022/09/03 09:53:31;;;;;;;;;;;;;;;19.10;48.85;101839.59;5059612;28;20091;-53
2022/09/03 09:55:57;;;;;;;;;;;;;;;19.16;48.75;101844.44;5058811;28;20023;-54
2022/09/03 09:58:23;;;;;;;;;;;;;;;19.22;48.48;101836.94;5055117;28;19917;-53
2022/09/03 10:00:55;;;;;;;;;;;;;;;19.24;48.46;101840.34;5057991;28;19929;-52
2022/09/03 10:03:20;;;;;;;;;;;;;;;19.26;48.32;101823.22;5055448;28;19931;-52
2022/09/03 10:05:57;;;;;;;;;;;;;;;19.32;48.12;101837.91;5055161;28;19924;-52
2022/09/03 10:08:23;;;;;;;;;;;;;;;19.38;48.20;101831.25;5059916;28;19931;-51
2022/09/03 10:10:50;;;;;;;;;;;;;;;19.43;48.17;101829.06;5061446;28;20014;-55
2022/09/03 10:13:17;;;;;;;;;;;;;;;19.46;47.76;101834.19;5058937;28;19999;-51
2022/09/03 10:15:50;;;;;;;;;;;;;;;19.47;47.64;101826.03;5056650;28;20268;-52
2022/09/03 10:18:15;;;;;;;;;;;;;;;19.48;47.41;101816.22;5057874;28;19927;-55
2022/09/03 10:20:46;;;;;;;;;;;;;;;19.48;47.73;101816.22;5059747;28;19920;-51
2022/09/03 10:23:20;;;;;;;;;;;;;;;19.50;47.77;101808.94;5061425;28;20539;-51
2022/09/03 10:25:52;;;;;;;;;;;;;;;19.54;47.30;101817.56;5060942;28;19917;-51
2022/09/03 10:28:22;;;;;;;;;;;;;;;19.55;47.18;101817.44;5060505;28;20066;-53
2022/09/03 10:30:54;;;;;;;;;;;;;;;19.59;47.13;101812.69;5049170;28;20384;-51
2022/09/03 10:33:31;;;;;;;;;;;;;;;19.61;46.64;101808.06;5040577;28;19945;-54
2022/09/03 10:36:05;;;;;;;;;;;;;;;19.66;46.38;101808.56;5061221;28;20451;-51
2022/09/03 10:38:36;;;;;;;;;;;;;;;19.69;46.41;101808.34;5058970;28;19924;-51
2022/09/03 10:41:08;;;;;;;;;;;;;;;19.73;46.14;101803.59;5060525;28;19928;-51
2022/09/03 10:43:36;;;;;;;;;;;;;;;19.78;45.80;101796.91;5062452;28;19923;-53
2022/09/03 10:46:05;;;;;;;;;;;;;;;19.87;45.77;101799.84;5062997;28;20344;-52
2022/09/03 10:48:49;;;;;;;;;;;;;;;19.95;45.42;101797.41;5059189;28;20312;-52
2022/09/03 10:51:14;;;;;;;;;;;;;;;20.00;45.36;101797.00;5060885;28;19924;-51
2022/09/03 10:53:51;;;;;;;;;;;;;;;20.04;45.13;101799.31;5061909;28;19944;-51
2022/09/03 10:56:38;;;;;;;;;;;;;;;20.09;44.76;101793.63;5058568;28;19975;-51
2022/09/03 10:59:14;;;;;;;;;;;;;;;20.15;44.64;101793.09;5019107;28;20105;-51
2022/09/03 11:01:52;;;;;;;;;;;;;;;20.17;44.69;101795.66;5056076;28;19952;-53
2022/09/03 11:04:36;;;;;;;;;;;;;;;20.23;44.84;101797.81;5059330;28;20357;-51
2022/09/03 11:07:04;;;;;;;;;;;;;;;20.33;44.54;101792.56;5062611;28;19924;-51
2022/09/03 11:09:42;;;;;;;;;;;;;;;20.41;44.33;101782.94;5057357;28;19931;-50
2022/09/03 11:12:16;;;;;;;;;;;;;;;20.53;43.72;101790.88;5060358;28;20514;-50
2022/09/03 11:14:45;;;;;;;;;;;;;;;20.59;43.63;101779.69;5062381;28;20287;-52
2022/09/03 11:17:14;;;;;;;;;;;;;;;20.66;43.51;101772.00;5060254;28;19935;-51
2022/09/03 11:19:49;;;;;;;;;;;;;;;20.70;43.29;101771.59;5061598;28;20466;-51
2022/09/03 11:22:17;;;;;;;;;;;;;;;20.75;43.23;101763.22;5061563;28;20303;-50
2022/09/03 11:24:45;;;;;;;;;;;;;;;20.82;43.38;101763.53;5062859;28;19923;-51
2022/09/03 11:27:25;;;;;;;;;;;;;;;20.88;42.93;101768.38;5060307;28;19923;-51
2022/09/03 11:30:02;;;;;;;;;;;;;;;20.93;42.97;101765.28;5060630;28;19924;-50
2022/09/03 11:32:49;;;;;;;;;;;;;;;20.94;42.64;101767.00;5062347;28;19947;-51
2022/09/03 11:35:23;;;;;;;;;;;;;;;20.98;42.67;101766.59;5049457;28;20011;-55
2022/09/03 11:37:59;;;;;;;;;;;;;;;21.03;42.47;101752.81;5060491;28;19990;-53
2022/09/03 11:40:30;;;;;;;;;;;;;;;21.13;42.53;101760.91;5058109;28;20037;-51
2022/09/03 11:43:04;;;;;;;;;;;;;;;21.21;42.33;101752.19;5059784;28;19927;-51
2022/09/03 11:45:30;;;;;;;;;;;;;;;21.24;42.20;101755.47;5063105;28;19920;-51
2022/09/03 11:47:55;;;;;;;;;;;;;;;21.24;41.97;101760.81;5063470;28;19974;-52
2022/09/03 11:50:25;;;;;;;;;;;;;;;21.25;41.95;101759.81;5063969;28;19927;-54
2022/09/03 11:52:52;;;;;;;;;;;;;;;21.26;42.16;101755.31;5063289;28;20435;-51
2022/09/03 11:55:43;;;;;;;;;;;;;;;21.25;41.81;101756.31;5063616;28;19917;-51
2022/09/03 11:58:25;;;;;;;;;;;;;;;21.20;41.79;101750.50;5054050;28;19912;-53
2022/09/03 12:00:52;;;;;;;;;;;;;;;21.15;42.00;101753.59;5062440;28;19927;-52
2022/09/03 12:03:22;;;;;;;;;;;;;;;21.15;42.11;101750.91;5064990;28;20015;-50
2022/09/03 12:06:04;;;;;;;;;;;;;;;21.16;41.89;101748.13;5064196;28;19920;-51
2022/09/03 12:08:53;;;;;;;;;;;;;;;21.22;42.04;101749.41;5061431;28;19920;-52
2022/09/03 12:11:22;;;;;;;;;;;;;;;21.25;41.93;101734.91;5045769;28;20023;-53
2022/09/03 12:13:53;;;;;;;;;;;;;;;21.24;41.76;101744.75;5067317;28;19928;-51
2022/09/03 12:16:44;;;;;;;;;;;;;;;21.25;41.54;101726.88;5066301;28;19964;-51
2022/09/03 12:19:24;;;;;;;;;;;;;;;21.26;41.82;101734.75;5040324;28;20007;-51
2022/09/03 12:21:50;;;;;;;;;;;;;;;21.28;41.63;101732.78;5066408;28;19931;-51
2022/09/03 12:24:18;;;;;;;;;;;;;;;21.27;41.32;101725.75;5068274;28;21673;-52
2022/09/03 12:26:43;;;;;;;;;;;;;;;21.26;41.64;101732.06;5064548;28;19927;-50
2022/09/03 12:29:25;;;;;;;;;;;;;;;21.28;41.29;101726.59;5065211;28;19912;-52
2022/09/03 12:31:50;;;;;;;;;;;;;;;21.32;41.61;101718.16;5060391;28;19965;-51
2022/09/03 12:34:17;;;;;;;;;;;;;;;21.40;41.34;101714.81;5047945;28;19935;-53
2022/09/03 12:36:50;;;;;;;;;;;;;;;21.41;41.19;101715.63;5046029;28;19932;-51
2022/09/03 12:39:23;;;;;;;;;;;;;;;21.42;41.02;101706.63;5048636;28;19936;-51
2022/09/03 12:42:00;;;;;;;;;;;;;;;21.41;41.20;101704.94;5048894;28;20063;-52
2022/09/03 12:44:28;;;;;;;;;;;;;;;21.37;40.98;101693.66;5049654;28;20380;-52
2022/09/03 12:47:13;;;;;;;;;;;;;;;21.38;40.74;101695.34;5049244;28;19928;-52
2022/09/03 12:49:43;;;;;;;;;;;;;;;21.41;40.94;101683.50;5053921;28;19956;-52
2022/09/03 12:52:26;;;;;;;;;;;;;;;21.45;40.91;101687.63;5048724;28;20276;-52